Bookmark and Share
Track history (hours):
 

MSC Jordan

Last reported at 2014-Apr-17 05:33 UTC. Time now 2014-Apr-17 09:36 UTC.
Position N 59°58' E 026°32'.

Length 237 m; draft 10.4 m.

Type: Ship (hazmat cat B). MMSI: 355194000.

NotesDate/timePositionNaut miles runAvg speedWind from/ knotsBaromVisibWave heightAir tempDewpointWater temp
2014-Apr-17 05:33N 59°58' E 026°32'1918.8
2014-Apr-17 04:31N 59°53' E 025°55'2818.8
2014-Apr-17 03:03N 59°48' E 025°01'918.6
2014-Apr-17 02:33N 59°46' E 024°43'1918.6
2014-Apr-17 01:33N 59°40' E 024°08'1918.7
2014-Apr-17 00:33N 59°35' E 023°33'1918.6
2014-Apr-16 23:32N 59°29' E 022°57'28318.9
2014-Apr-16 08:33N 56°05' E 016°49'1919.5
2014-Apr-16 07:33N 55°55' E 016°20'1919.2
2014-Apr-16 06:33N 55°45' E 015°50'1919.1
2014-Apr-16 05:33N 55°35' E 015°20'2019.6
2014-Apr-16 04:33N 55°27' E 014°50'2019.6
2014-Apr-16 03:33N 55°13' E 014°25'2019.6
2014-Apr-16 02:33N 54°59' E 014°00'2019.8
2014-Apr-16 01:33N 54°53' E 013°28'2619.5
2014-Apr-16 00:14N 54°45' E 012°45'1318.9
2014-Apr-15 23:33N 54°38' E 012°26'1817.6
2014-Apr-15 22:33N 54°25' E 012°07'1818.3
2014-Apr-15 21:33N 54°27' E 011°36'2019.7
2014-Apr-15 20:33N 54°35' E 011°05'13715.3
2014-Apr-15 11:34N 56°50' E 011°49'2019.8
2014-Apr-15 10:34N 57°08' E 011°37'2020.0
2014-Apr-15 09:34N 57°27' E 011°24'1919.4
2014-Apr-15 08:34N 57°40' E 010°57'1817.6
2014-Apr-15 07:34N 57°46' E 010°26'17514.5
2014-Apr-14 19:30N 55°37' E 006°49'24011.5
2014-Apr-13 22:33N 51°58' E 004°04'0 0.0
2014-Apr-13 21:33N 51°58' E 004°04'0 0.0
2014-Apr-13 20:33N 51°58' E 004°04'0 0.0
2014-Apr-13 19:32N 51°58' E 004°04'0 0.0
2014-Apr-13 18:33N 51°58' E 004°04'0 0.0
2014-Apr-13 17:33N 51°58' E 004°04'0 0.0
2014-Apr-13 16:33N 51°58' E 004°04'0 0.0
2014-Apr-13 15:33N 51°58' E 004°04'0 0.0
2014-Apr-13 14:33N 51°58' E 004°04'0 0.0
2014-Apr-13 13:33N 51°58' E 004°04'0 0.0
2014-Apr-13 12:32N 51°58' E 004°04'0 0.0
2014-Apr-13 11:33N 51°58' E 004°04'0 0.0
2014-Apr-13 10:33N 51°58' E 004°04'0 0.0
2014-Apr-13 09:33N 51°58' E 004°04'0 0.0
2014-Apr-13 08:33N 51°58' E 004°04'0 0.0
2014-Apr-13 07:33N 51°58' E 004°04'0 0.0
2014-Apr-13 06:33N 51°58' E 004°04'0 0.0
2014-Apr-13 05:32N 51°58' E 004°04'0 0.0
2014-Apr-13 04:33N 51°58' E 004°04'0 0.0
2014-Apr-13 03:33N 51°58' E 004°04'0 0.0
2014-Apr-13 02:33N 51°58' E 004°04'6 6.2
2014-Apr-13 01:33N 52°01' E 003°56'9 9.1
2014-Apr-13 00:33N 52°07' E 003°44'5 4.0
2014-Apr-12 23:18N 52°11' E 003°40'0 0.1
2014-Apr-12 22:33N 52°11' E 003°40'0 0.0
2014-Apr-12 17:27N 52°11' E 003°40'0 0.1
2014-Apr-12 16:33N 52°11' E 003°40'0 0.0
2014-Apr-12 15:33N 52°11' E 003°40'0 0.0
2014-Apr-12 14:33N 52°11' E 003°40'0 0.0
2014-Apr-12 13:33N 52°11' E 003°40'0 0.0
2014-Apr-12 12:33N 52°11' E 003°40'0 0.0
2014-Apr-12 11:33N 52°11' E 003°40'0 0.0
2014-Apr-12 10:33N 52°11' E 003°40'0 0.1
2014-Apr-12 09:33N 52°11' E 003°40'0 0.1
2014-Apr-12 08:19N 52°11' E 003°39'0 0.0
2014-Apr-12 07:15N 52°11' E 003°39'0 0.0
2014-Apr-12 06:21N 52°11' E 003°39'0 0.0
2014-Apr-12 05:18N 52°11' E 003°39'0 0.2
2014-Apr-12 04:18N 52°11' E 003°40'0 0.1
2014-Apr-12 03:33N 52°11' E 003°40'0 0.0
2014-Apr-12 02:27N 52°11' E 003°40'0 0.0
2014-Apr-12 01:27N 52°11' E 003°40'0 0.0
2014-Apr-12 00:27N 52°11' E 003°40'0 0.0
2014-Apr-11 23:33N 52°11' E 003°40'0 0.2
2014-Apr-11 22:33N 52°11' E 003°40'0 0.1
2014-Apr-11 21:09N 52°11' E 003°39'0 0.0
2014-Apr-11 20:30N 52°11' E 003°39'0 0.0
2014-Apr-11 19:33N 52°11' E 003°39'0 0.0
2014-Apr-11 15:09N 52°11' E 003°39'0 0.2
2014-Apr-11 14:30N 52°11' E 003°40'0 0.1
2014-Apr-11 13:27N 52°11' E 003°40'0 0.0
2014-Apr-11 12:30N 52°11' E 003°40'0 0.0
2014-Apr-11 11:33N 52°11' E 003°40'0 0.0
2014-Apr-11 10:33N 52°11' E 003°40'0 0.1
2014-Apr-11 08:33N 52°11' E 003°39'0 0.0
2014-Apr-11 07:33N 52°11' E 003°39'0 0.0
2014-Apr-11 06:33N 52°11' E 003°39'0 0.0
2014-Apr-11 04:18N 52°11' E 003°39'0 0.1
2014-Apr-11 03:09N 52°11' E 003°40'0 0.1
2014-Apr-11 02:30N 52°11' E 003°40'0 0.0
2014-Apr-11 01:30N 52°11' E 003°40'0 0.0
2014-Apr-11 00:33N 52°11' E 003°40'0 0.0
2014-Apr-10 23:33N 52°11' E 003°40'0 0.0
2014-Apr-10 22:33N 52°11' E 003°40'0 0.2
2014-Apr-10 21:21N 52°11' E 003°39'0 0.1
2014-Apr-10 20:33N 52°11' E 003°39'0 0.0
2014-Apr-10 19:30N 52°11' E 003°39'0 0.0
2014-Apr-10 18:30N 52°11' E 003°39'0 0.0
2014-Apr-10 17:33N 52°11' E 003°39'0 0.0
2014-Apr-10 16:18N 52°11' E 003°39'0 0.1
2014-Apr-10 14:33N 52°11' E 003°40'0 0.1
2014-Apr-10 13:33N 52°11' E 003°40'0 0.0
2014-Apr-10 12:24N 52°11' E 003°40'0 0.0
2014-Apr-10 11:33N 52°11' E 003°40'0 0.0
2014-Apr-10 10:33N 52°11' E 003°40'0 0.0
2014-Apr-10 09:06N 52°11' E 003°40'0 0.0
2014-Apr-10 08:33N 52°11' E 003°40'0 0.1
2014-Apr-10 07:06N 52°11' E 003°39'0 0.0
2014-Apr-10 05:33N 52°11' E 003°39'0 0.0
2014-Apr-10 04:33N 52°11' E 003°39'1 0.6
2014-Apr-10 03:33N 52°11' E 003°40'1313.2
2014-Apr-10 02:33N 52°23' E 003°49'1716.9
2014-Apr-10 01:33N 52°40' E 003°54'1616.4
2014-Apr-10 00:33N 52°56' E 003°59'1615.9
2014-Apr-09 23:33N 53°07' E 004°18'1616.2
2014-Apr-09 22:34N 53°20' E 004°33'1616.1
2014-Apr-09 21:33N 53°32' E 004°52'1817.6
2014-Apr-09 20:33N 53°38' E 005°20'1717.4
2014-Apr-09 19:33N 53°43' E 005°48'4916.2
2014-Apr-09 16:33N 53°56' E 007°07'1515.3
2014-Apr-09 15:33N 53°59' E 007°33'1313.5
2014-Apr-09 14:33N 53°52' E 007°53'1313.0
2014-Apr-09 13:33N 53°46' E 008°12'1615.9
2014-Apr-09 12:33N 53°35' E 008°32'0 0.4
2014-Apr-09 11:31N 53°35' E 008°32'0 0.0
2014-Apr-09 10:31N 53°35' E 008°32'0 0.0
2014-Apr-09 09:32N 53°35' E 008°32'0 0.0
2014-Apr-09 08:31N 53°35' E 008°32'0 0.0
2014-Apr-09 07:31N 53°35' E 008°32'0 0.0
2014-Apr-09 06:31N 53°35' E 008°32'0 0.0
2014-Apr-09 05:31N 53°35' E 008°32'0 0.0
2014-Apr-09 04:32N 53°35' E 008°32'0 0.0
2014-Apr-09 03:32N 53°35' E 008°32'0 0.0
2014-Apr-09 02:32N 53°35' E 008°32'0 0.0
2014-Apr-09 01:32N 53°35' E 008°32'0 0.0
2014-Apr-09 00:32N 53°35' E 008°32'0 0.0
2014-Apr-08 23:32N 53°35' E 008°32'0 0.0
2014-Apr-08 22:33N 53°35' E 008°32'0 0.0
2014-Apr-08 21:33N 53°35' E 008°32'0 0.0
2014-Apr-08 20:34N 53°35' E 008°32'0 0.0
2014-Apr-08 19:32N 53°35' E 008°32'2 2.4
2014-Apr-08 18:33N 53°37' E 008°30'1413.6
2014-Apr-08 17:34N 53°45' E 008°12'1515.4
2014-Apr-08 16:34N 53°52' E 007°49'7 7.0
2014-Apr-08 15:33N 53°56' E 007°39'1110.9
2014-Apr-08 14:33N 54°06' E 007°30'1716.6
2014-Apr-08 13:33N 54°22' E 007°22'1616.5
2014-Apr-08 12:33N 54°38' E 007°21'1716.6
2014-Apr-08 11:33N 54°55' E 007°21'1716.6
2014-Apr-08 10:33N 55°11' E 007°21'1716.5
2014-Apr-08 09:33N 55°28' E 007°19'1616.2
2014-Apr-08 08:34N 55°44' E 007°21'3616.3
2014-Apr-08 06:21N 56°19' E 007°37'11614.9
2014-Apr-07 22:33N 57°44' E 010°01'1616.2
2014-Apr-07 21:33N 57°48' E 010°31'1515.5
2014-Apr-07 20:33N 57°42' E 010°58'1717.5
2014-Apr-07 19:33N 57°30' E 011°22'3517.3
2014-Apr-07 17:31N 56°57' E 011°46'1516.0
2014-Apr-07 16:33N 56°42' E 011°51'12914.4
2014-Apr-07 07:33N 54°35' E 011°15'1616.6
2014-Apr-07 06:33N 54°28' E 011°40'1615.7
2014-Apr-07 05:34N 54°27' E 012°07'  

Dump ship's entire track history

sailing weather and tide predictions

MSC Jordan — HPMK — position and weather